Time;durP1;ratioP1;P1;durP2;ratioP2;P2;SDS_P1;SDS_P2;PMS_P1;PMS_P2;Temp;Humidity;BMP_temperature;BMP_pressure;BME280_temperature;BME280_humidity;BME280_pressure;Samples;Min_cycle;Max_cycle;Signal;HPM_P1;HPM_P2
2023/08/14 00:02:04;;;;;;;11.13;9.13;;;21.40;99.90;;;;;;4838859;29;20272;-93
2023/08/14 00:04:30;;;;;;;10.03;9.10;;;21.40;99.90;;;;;;4838982;29;20241;-95
2023/08/14 00:06:55;;;;;;;11.03;9.33;;;21.30;99.90;;;;;;4838068;29;20458;-94
2023/08/14 00:09:22;;;;;;;11.50;9.50;;;21.30;99.90;;;;;;4837423;29;20547;-94
2023/08/14 00:11:47;;;;;;;10.37;9.33;;;21.20;99.90;;;;;;4838099;29;20225;-95
2023/08/14 00:14:13;;;;;;;9.77;8.50;;;21.20;99.90;;;;;;4849462;29;20656;-95
2023/08/14 00:16:39;;;;;;;10.37;9.33;;;21.20;99.90;;;;;;4837571;29;20241;-94
2023/08/14 00:19:04;;;;;;;9.00;8.00;;;21.20;99.90;;;;;;4837204;29;20200;-94
2023/08/14 00:21:30;;;;;;;9.30;8.40;;;21.20;99.90;;;;;;4837302;29;20709;-95
2023/08/14 00:23:56;;;;;;;9.60;8.70;;;21.20;99.90;;;;;;4837336;29;20216;-94
2023/08/14 00:26:21;;;;;;;12.37;9.80;;;21.10;99.90;;;;;;4838712;29;20446;-95
2023/08/14 00:28:47;;;;;;;9.83;8.87;;;21.10;99.90;;;;;;4836132;29;20236;-93
2023/08/14 00:31:13;;;;;;;9.47;8.47;;;21.10;99.90;;;;;;4838552;29;20573;-93
2023/08/14 00:33:39;;;;;;;10.77;8.57;;;21.10;99.90;;;;;;4838465;29;20166;-94
2023/08/14 00:36:07;;;;;;;10.27;9.37;;;21.00;99.90;;;;;;4837814;29;20563;-96
2023/08/14 00:38:33;;;;;;;12.70;9.50;;;20.90;99.90;;;;;;4837261;29;20264;-94
2023/08/14 00:40:59;;;;;;;10.17;8.73;;;20.80;99.90;;;;;;4838825;29;20548;-95
2023/08/14 00:43:25;;;;;;;11.57;9.40;;;20.80;99.90;;;;;;4836992;29;20599;-94
2023/08/14 00:45:55;;;;;;;10.30;9.00;;;20.80;99.90;;;;;;4837105;29;20448;-94
2023/08/14 00:48:23;;;;;;;9.77;8.77;;;20.70;99.90;;;;;;4836623;29;20189;-94
2023/08/14 00:50:48;;;;;;;9.77;8.70;;;20.70;99.90;;;;;;4838301;29;20484;-95
2023/08/14 00:53:15;;;;;;;10.60;9.70;;;20.70;99.90;;;;;;4838104;29;20417;-93
2023/08/14 00:55:41;;;;;;;8.90;8.00;;;20.70;99.90;;;;;;4838096;29;20200;-94
2023/08/14 00:58:08;;;;;;;8.87;8.00;;;20.70;99.90;;;;;;4837868;29;20421;-95
2023/08/14 01:00:34;;;;;;;9.87;8.30;;;20.60;99.90;;;;;;4846007;29;20471;-94
2023/08/14 01:03:02;;;;;;;10.40;9.40;;;20.60;99.90;;;;;;4837218;29;20439;-94
2023/08/14 01:05:27;;;;;;;9.23;8.33;;;20.60;99.90;;;;;;4837014;29;20486;-94
2023/08/14 01:07:53;;;;;;;13.97;9.07;;;20.50;99.90;;;;;;4836598;29;20432;-94
2023/08/14 01:10:20;;;;;;;9.97;8.97;;;20.50;99.90;;;;;;4836636;29;20222;-95
2023/08/14 01:12:48;;;;;;;9.23;8.40;;;20.50;99.90;;;;;;4837011;29;20736;-94
2023/08/14 01:15:20;;;;;;;9.70;8.77;;;20.50;99.90;;;;;;4837864;29;20452;-95
2023/08/14 01:17:57;;;;;;;11.17;9.60;;;20.40;99.90;;;;;;4837586;29;20463;-94
2023/08/14 01:20:25;;;;;;;9.47;8.50;;;20.40;99.90;;;;;;4836996;29;20759;-94
2023/08/14 01:23:20;;;;;;;9.90;8.80;;;20.30;99.90;;;;;;4837720;29;20976;-94
2023/08/14 01:25:47;;;;;;;9.97;9.07;;;20.30;99.90;;;;;;4836179;29;20468;-95
2023/08/14 01:28:13;;;;;;;12.73;8.60;;;20.30;99.90;;;;;;4835823;29;20783;-93
2023/08/14 01:30:39;;;;;;;9.87;8.90;;;20.20;99.90;;;;;;4837808;29;20521;-95
2023/08/14 01:33:05;;;;;;;10.40;9.40;;;20.20;99.90;;;;;;4836630;29;20418;-94
2023/08/14 01:35:41;;;;;;;9.10;8.20;;;20.30;99.90;;;;;;4836777;29;20463;-95
2023/08/14 01:38:25;;;;;;;9.00;8.20;;;20.20;99.90;;;;;;4836596;29;20199;-95
2023/08/14 01:41:16;;;;;;;9.40;8.50;;;20.20;99.90;;;;;;4837931;29;20459;-93
2023/08/14 01:43:48;;;;;;;10.63;9.67;;;20.20;99.90;;;;;;4837663;29;20458;-96
2023/08/14 01:46:15;;;;;;;14.67;9.37;;;20.20;99.90;;;;;;4838415;29;20449;-95
2023/08/14 01:48:42;;;;;;;9.40;8.50;;;20.10;99.90;;;;;;4837441;29;20412;-95
2023/08/14 01:51:10;;;;;;;9.10;8.20;;;20.20;99.90;;;;;;4837973;29;20488;-94
2023/08/14 01:53:37;;;;;;;9.23;8.43;;;20.20;99.90;;;;;;4837919;29;20922;-94
2023/08/14 01:56:03;;;;;;;9.43;8.63;;;20.20;99.90;;;;;;4837593;29;20447;-95
2023/08/14 01:58:30;;;;;;;9.10;8.30;;;20.20;99.90;;;;;;4837127;29;20415;-93
2023/08/14 02:00:55;;;;;;;10.00;8.90;;;20.10;99.90;;;;;;4839435;29;20455;-93
2023/08/14 02:03:21;;;;;;;9.43;8.50;;;20.10;99.90;;;;;;4840219;29;20431;-94
2023/08/14 02:05:47;;;;;;;15.30;8.97;;;20.00;99.90;;;;;;4840870;29;20279;-94
2023/08/14 02:08:13;;;;;;;10.37;9.47;;;20.00;99.90;;;;;;4839955;29;20185;-94
2023/08/14 02:10:38;;;;;;;9.97;8.97;;;20.00;99.90;;;;;;4839634;29;20224;-95
2023/08/14 02:13:04;;;;;;;9.97;9.07;;;20.00;99.90;;;;;;4840086;29;20216;-95
2023/08/14 02:15:29;;;;;;;11.00;9.53;;;19.90;99.90;;;;;;4840024;29;20232;-95
2023/08/14 02:17:55;;;;;;;14.00;10.20;;;19.90;99.90;;;;;;4851997;29;20285;-93
2023/08/14 02:20:21;;;;;;;9.97;8.90;;;19.80;99.90;;;;;;4848305;29;20552;-94
2023/08/14 02:22:47;;;;;;;10.90;9.00;;;19.70;99.90;;;;;;4840478;29;20185;-93
2023/08/14 02:25:13;;;;;;;9.60;8.63;;;19.70;99.90;;;;;;4839484;29;20599;-94
2023/08/14 02:27:38;;;;;;;11.10;8.93;;;19.70;99.90;;;;;;4838889;29;20279;-95
2023/08/14 02:30:05;;;;;;;10.73;9.70;;;19.70;99.90;;;;;;4839338;29;20314;-95
2023/08/14 02:32:30;;;;;;;11.27;10.20;;;19.60;99.90;;;;;;4839587;29;20269;-94
2023/08/14 02:34:56;;;;;;;16.40;9.40;;;19.60;99.90;;;;;;4840302;29;20870;-95
2023/08/14 02:37:22;;;;;;;10.90;9.90;;;19.60;99.90;;;;;;4840270;29;20173;-93
2023/08/14 02:39:48;;;;;;;9.47;8.70;;;19.50;99.90;;;;;;4840100;29;20347;-93
2023/08/14 02:42:18;;;;;;;11.20;9.33;;;19.50;99.90;;;;;;4839598;29;20201;-93
2023/08/14 02:44:44;;;;;;;9.50;8.60;;;19.60;99.90;;;;;;4840309;29;20553;-95
2023/08/14 02:47:10;;;;;;;11.83;9.40;;;19.60;99.90;;;;;;4839555;29;20847;-94
2023/08/14 02:49:36;;;;;;;9.13;8.33;;;19.50;99.90;;;;;;4840173;29;20270;-95
2023/08/14 02:52:02;;;;;;;9.53;8.57;;;19.50;99.90;;;;;;4840423;29;20477;-95
2023/08/14 02:54:28;;;;;;;9.40;8.60;;;19.50;99.90;;;;;;4839308;29;20197;-94
2023/08/14 02:56:53;;;;;;;12.93;9.93;;;19.60;99.90;;;;;;4839255;29;20426;-94
2023/08/14 02:59:19;;;;;;;11.27;10.23;;;19.70;99.90;;;;;;4838815;29;20191;-95
2023/08/14 03:01:45;;;;;;;10.40;9.40;;;19.80;99.90;;;;;;4838917;29;20386;-94
2023/08/14 03:04:12;;;;;;;10.27;9.27;;;19.90;99.90;;;;;;4840896;29;20714;-93
2023/08/14 03:06:38;;;;;;;10.03;9.10;;;19.90;99.90;;;;;;4845301;29;20219;-94
2023/08/14 03:09:03;;;;;;;12.37;9.30;;;20.00;99.90;;;;;;4841803;29;20552;-94
2023/08/14 03:11:29;;;;;;;11.03;9.93;;;20.00;99.90;;;;;;4839383;29;20272;-93
2023/08/14 03:13:55;;;;;;;10.33;9.30;;;20.00;99.90;;;;;;4838360;29;20355;-93
2023/08/14 03:16:24;;;;;;;12.53;9.60;;;20.00;99.90;;;;;;4839925;29;20717;-95
2023/08/14 03:18:49;;;;;;;11.60;10.40;;;20.10;99.90;;;;;;4839629;29;20211;-95
2023/08/14 03:21:15;;;;;;;10.43;9.40;;;20.20;99.90;;;;;;4838795;29;20451;-93
2023/08/14 03:23:41;;;;;;;12.57;9.10;;;20.20;99.90;;;;;;4837682;29;20197;-94
2023/08/14 03:26:06;;;;;;;10.10;9.10;;;20.20;99.90;;;;;;4838153;29;20316;-93
2023/08/14 03:28:32;;;;;;;11.13;10.03;;;20.20;99.90;;;;;;4838899;29;20344;-93
2023/08/14 03:30:58;;;;;;;11.10;9.47;;;20.20;99.90;;;;;;4837516;29;20253;-93
2023/08/14 03:33:23;;;;;;;9.90;8.93;;;20.20;99.90;;;;;;4839588;29;20210;-93
2023/08/14 03:35:53;;;;;;;10.47;9.57;;;20.30;99.90;;;;;;4838098;29;20209;-93
2023/08/14 03:38:19;;;;;;;11.20;9.97;;;20.30;99.90;;;;;;4838202;29;20215;-95
2023/08/14 03:40:45;;;;;;;11.27;10.17;;;20.30;99.90;;;;;;4838661;29;20475;-95
2023/08/14 03:43:10;;;;;;;9.60;8.70;;;20.20;99.90;;;;;;4838071;29;20516;-93
2023/08/14 03:45:36;;;;;;;11.30;9.87;;;20.20;99.90;;;;;;4839442;29;20205;-94
2023/08/14 03:48:02;;;;;;;14.33;12.13;;;20.20;99.90;;;;;;4837749;29;20203;-95
2023/08/14 03:50:28;;;;;;;14.30;11.43;;;20.20;99.90;;;;;;4837426;29;20227;-94
2023/08/14 03:52:53;;;;;;;13.30;10.87;;;20.20;99.90;;;;;;4837612;29;20542;-93
2023/08/14 03:55:19;;;;;;;10.33;9.43;;;20.30;99.90;;;;;;4837527;29;20208;-95
2023/08/14 03:57:45;;;;;;;10.60;9.60;;;20.30;99.90;;;;;;4838078;29;20650;-93
2023/08/14 04:00:11;;;;;;;10.53;9.60;;;20.20;99.90;;;;;;4837870;29;20246;-95
2023/08/14 04:02:36;;;;;;;12.73;10.23;;;20.20;99.90;;;;;;4837603;29;20191;-94
2023/08/14 04:05:02;;;;;;;11.00;9.90;;;20.20;99.90;;;;;;4837600;29;20481;-94
2023/08/14 04:07:28;;;;;;;10.57;9.47;;;20.20;99.90;;;;;;4837038;29;20220;-93
2023/08/14 04:09:54;;;;;;;12.37;11.27;;;20.20;99.90;;;;;;4837507;29;20464;-93
2023/08/14 04:12:19;;;;;;;10.90;9.90;;;20.20;99.90;;;;;;4838904;29;20349;-93
2023/08/14 04:14:45;;;;;;;10.60;9.60;;;20.20;99.90;;;;;;4837662;29;20494;-93
2023/08/14 04:17:11;;;;;;;12.77;11.40;;;20.20;99.90;;;;;;4837244;29;20243;-93
2023/08/14 04:19:37;;;;;;;12.77;11.00;;;20.10;99.90;;;;;;4838206;29;20741;-93
2023/08/14 04:22:02;;;;;;;12.83;10.10;;;20.00;99.90;;;;;;4845410;29;20202;-94
2023/08/14 04:24:28;;;;;;;14.80;10.97;;;19.90;99.90;;;;;;4836530;29;20485;-95
2023/08/14 04:26:54;;;;;;;11.00;9.90;;;19.80;99.90;;;;;;4836970;29;20645;-94
2023/08/14 04:29:20;;;;;;;11.40;10.40;;;19.80;99.90;;;;;;4828820;29;20270;-95
2023/08/14 04:31:46;;;;;;;13.10;11.83;;;19.80;99.90;;;;;;4819239;29;20277;-93
2023/08/14 04:34:11;;;;;;;12.97;11.67;;;19.90;99.90;;;;;;4830529;29;20188;-94
2023/08/14 04:36:37;;;;;;;13.00;11.70;;;19.90;99.90;;;;;;4839927;29;20440;-94
2023/08/14 04:39:09;;;;;;;11.73;10.50;;;20.00;99.90;;;;;;4836953;29;20812;-93
2023/08/14 04:41:35;;;;;;;11.80;10.57;;;20.00;99.90;;;;;;4836907;29;20235;-94
2023/08/14 04:44:01;;;;;;;15.10;10.10;;;20.10;99.90;;;;;;4832780;29;20788;-95
2023/08/14 04:46:35;;;;;;;14.23;10.30;;;20.10;99.90;;;;;;4836004;29;20308;-94
2023/08/14 04:49:01;;;;;;;11.37;10.27;;;20.20;99.90;;;;;;4837178;29;20197;-95
2023/08/14 04:51:28;;;;;;;12.23;10.90;;;20.20;99.90;;;;;;4837797;29;20490;-95
2023/08/14 04:53:54;;;;;;;16.97;13.63;;;20.30;99.90;;;;;;4819732;29;20788;-94
2023/08/14 04:56:20;;;;;;;32.27;22.87;;;20.40;99.90;;;;;;4821239;29;20773;-95
2023/08/14 04:58:46;;;;;;;15.40;13.27;;;20.50;99.90;;;;;;4837783;29;20487;-95
2023/08/14 05:01:12;;;;;;;12.07;11.03;;;20.60;99.90;;;;;;4830346;29;20981;-95
2023/08/14 05:03:38;;;;;;;11.83;10.67;;;20.60;99.90;;;;;;4836527;29;20224;-94
2023/08/14 05:06:04;;;;;;;10.63;9.53;;;20.70;99.90;;;;;;4836811;29;20213;-95
2023/08/14 05:08:30;;;;;;;12.60;10.63;;;20.80;99.90;;;;;;4837416;29;20945;-94
2023/08/14 05:10:56;;;;;;;12.07;9.90;;;20.80;99.90;;;;;;4834107;29;20590;-94
2023/08/14 05:13:22;;;;;;;10.90;9.80;;;20.90;99.90;;;;;;4837770;29;20596;-94
2023/08/14 05:15:49;;;;;;;11.30;10.20;;;20.90;99.90;;;;;;4845594;29;20583;-94
2023/08/14 05:18:16;;;;;;;12.63;11.23;;;21.00;99.90;;;;;;4841911;29;20234;-95
2023/08/14 05:20:47;;;;;;;11.70;10.60;;;21.00;99.90;;;;;;4835505;29;20487;-93
2023/08/14 05:23:13;;;;;;;18.73;10.53;;;21.10;99.90;;;;;;4837315;29;20606;-95
2023/08/14 05:25:40;;;;;;;11.10;10.00;;;21.10;99.90;;;;;;4835008;29;20440;-94
2023/08/14 05:28:06;;;;;;;11.30;10.13;;;21.10;99.90;;;;;;4833925;29;20790;-95
2023/08/14 05:30:32;;;;;;;11.63;10.50;;;21.30;99.90;;;;;;4833569;29;20494;-94
2023/08/14 05:32:58;;;;;;;11.43;10.10;;;21.40;99.90;;;;;;4835418;29;20540;-93
2023/08/14 05:35:24;;;;;;;11.10;10.00;;;21.40;99.90;;;;;;4838852;29;20559;-95
2023/08/14 05:37:59;;;;;;;11.87;10.20;;;21.50;99.90;;;;;;4839767;29;20435;-94
2023/08/14 05:40:28;;;;;;;13.83;10.20;;;21.60;99.90;;;;;;4839543;29;21029;-93
2023/08/14 05:43:08;;;;;;;13.27;11.90;;;21.70;99.90;;;;;;4837787;29;20443;-95
2023/08/14 05:45:41;;;;;;;67.47;50.43;;;21.80;99.90;;;;;;4839859;29;20506;-93
2023/08/14 05:48:07;;;;;;;12.80;10.90;;;21.80;99.90;;;;;;4839974;29;20424;-94
2023/08/14 05:50:34;;;;;;;11.87;10.67;;;21.90;99.90;;;;;;4870076;29;20480;-94
2023/08/14 05:53:03;;;;;;;11.10;9.63;;;22.00;99.90;;;;;;4828590;29;20448;-95
2023/08/14 05:55:34;;;;;;;12.87;11.60;;;22.00;99.90;;;;;;4834803;29;20449;-95
2023/08/14 05:58:00;;;;;;;12.23;10.30;;;22.10;99.90;;;;;;4831506;29;20621;-95
2023/08/14 06:00:26;;;;;;;13.53;10.70;;;22.10;99.90;;;;;;4841218;29;20444;-94
2023/08/14 06:02:52;;;;;;;17.10;12.00;;;22.20;99.90;;;;;;4839120;29;20438;-94
2023/08/14 06:05:19;;;;;;;13.07;10.00;;;22.30;99.90;;;;;;4840683;29;20459;-93
2023/08/14 06:07:46;;;;;;;15.33;11.10;;;22.40;99.90;;;;;;4840121;29;20520;-94
2023/08/14 06:10:12;;;;;;;11.33;10.30;;;22.40;99.90;;;;;;4840789;29;20510;-93
2023/08/14 06:12:38;;;;;;;10.90;9.80;;;22.50;99.90;;;;;;4837604;29;20839;-93
2023/08/14 06:15:05;;;;;;;10.73;9.50;;;22.60;99.90;;;;;;4840730;29;20220;-94
2023/08/14 06:17:32;;;;;;;16.07;11.43;;;22.70;99.90;;;;;;4840297;29;20837;-94
2023/08/14 06:19:58;;;;;;;11.43;9.70;;;22.80;99.90;;;;;;4830249;29;20455;-95
2023/08/14 06:22:24;;;;;;;10.83;9.77;;;23.00;99.90;;;;;;4829923;29;20750;-95
2023/08/14 06:24:50;;;;;;;10.17;8.30;;;23.00;99.90;;;;;;4842070;29;21002;-94
2023/08/14 06:27:15;;;;;;;10.97;9.97;;;23.10;99.90;;;;;;4840401;29;20620;-95
2023/08/14 06:29:41;;;;;;;9.87;8.57;;;23.30;99.90;;;;;;4840332;29;20241;-94
2023/08/14 06:32:07;;;;;;;12.00;9.57;;;23.40;99.90;;;;;;4838740;29;20309;-95
2023/08/14 06:34:33;;;;;;;10.33;8.63;;;23.50;99.90;;;;;;4838243;29;20225;-95
2023/08/14 06:36:58;;;;;;;9.30;8.10;;;23.60;99.90;;;;;;4840816;29;20201;-94
2023/08/14 06:39:24;;;;;;;10.50;8.50;;;23.70;99.90;;;;;;4840250;29;20488;-95
2023/08/14 06:41:51;;;;;;;12.60;8.63;;;23.80;99.90;;;;;;4839584;29;20273;-95
2023/08/14 06:44:17;;;;;;;10.40;8.17;;;24.00;99.90;;;;;;4840685;29;20255;-94
2023/08/14 06:46:42;;;;;;;11.03;9.23;;;24.10;99.90;;;;;;4840515;29;20569;-95
2023/08/14 06:49:10;;;;;;;9.30;8.40;;;24.20;99.90;;;;;;4844268;29;20191;-95
2023/08/14 06:51:36;;;;;;;11.87;8.67;;;24.30;99.90;;;;;;4832715;29;20494;-94
2023/08/14 06:54:02;;;;;;;11.83;8.60;;;24.40;99.90;;;;;;4835385;29;20428;-94
2023/08/14 06:56:28;;;;;;;12.73;8.37;;;24.60;99.90;;;;;;4837628;29;20439;-95
2023/08/14 06:58:55;;;;;;;9.33;7.27;;;24.70;99.90;;;;;;4835494;29;20450;-95
2023/08/14 07:01:21;;;;;;;9.10;8.30;;;24.70;99.90;;;;;;4836092;29;20208;-95
2023/08/14 07:03:47;;;;;;;15.53;8.93;;;24.90;99.90;;;;;;4835054;29;20431;-95
2023/08/14 07:06:12;;;;;;;10.43;9.37;;;25.00;99.90;;;;;;4836036;29;20462;-95
2023/08/14 07:08:38;;;;;;;10.00;9.03;;;25.10;99.90;;;;;;4836753;29;20423;-92
2023/08/14 07:11:04;;;;;;;8.53;7.53;;;25.20;99.90;;;;;;4836460;29;20260;-95
2023/08/14 07:13:30;;;;;;;8.77;7.77;;;25.30;99.90;;;;;;4836885;29;20327;-94
2023/08/14 07:15:55;;;;;;;9.20;7.50;;;25.30;99.90;;;;;;4844608;29;20211;-94
2023/08/14 07:18:21;;;;;;;8.73;7.33;;;25.50;99.90;;;;;;4839573;29;20200;-96
2023/08/14 07:20:48;;;;;;;55.23;38.70;;;25.60;99.90;;;;;;4837485;29;20216;-95
2023/08/14 07:23:18;;;;;;;9.30;8.40;;;25.60;99.90;;;;;;4834216;29;20181;-94
2023/08/14 07:25:44;;;;;;;9.17;8.27;;;25.60;99.90;;;;;;4835847;29;20456;-96
2023/08/14 07:28:10;;;;;;;7.93;7.13;;;25.60;99.90;;;;;;4837630;29;20420;-94
2023/08/14 07:30:37;;;;;;;9.33;7.73;;;25.60;99.90;;;;;;4835219;29;20483;-95
2023/08/14 07:33:04;;;;;;;17.27;8.73;;;25.70;99.90;;;;;;4834424;29;20443;-95
2023/08/14 07:35:30;;;;;;;8.77;6.70;;;25.70;99.90;;;;;;4843493;29;21016;-95
2023/08/14 07:37:57;;;;;;;7.63;6.90;;;25.80;99.90;;;;;;4836197;29;20429;-95
2023/08/14 07:40:24;;;;;;;7.83;7.03;;;26.00;99.90;;;;;;4846215;29;20212;-95
2023/08/14 07:42:49;;;;;;;7.33;6.63;;;26.00;99.90;;;;;;4848938;29;20438;-95
2023/08/14 07:45:15;;;;;;;10.07;7.40;;;26.00;99.90;;;;;;4833391;29;20983;-95
2023/08/14 07:47:41;;;;;;;8.93;6.83;;;26.20;99.90;;;;;;4839401;29;20186;-93
2023/08/14 07:50:08;;;;;;;7.20;6.47;;;26.20;99.90;;;;;;4843755;29;20473;-95
2023/08/14 07:52:34;;;;;;;8.40;6.93;;;26.30;99.90;;;;;;4835828;29;20601;-95
2023/08/14 07:55:00;;;;;;;7.03;6.27;;;26.50;99.90;;;;;;4818145;29;20500;-95
2023/08/14 07:57:27;;;;;;;8.90;5.90;;;26.70;99.90;;;;;;4825772;29;20501;-94
2023/08/14 07:59:53;;;;;;;6.03;5.53;;;26.90;99.90;;;;;;4848084;29;20493;-94
2023/08/14 08:02:19;;;;;;;7.30;6.53;;;27.00;99.90;;;;;;4834450;29;20704;-95
2023/08/14 08:04:46;;;;;;;6.77;6.07;;;27.10;99.90;;;;;;4832677;29;20613;-94
2023/08/14 08:07:12;;;;;;;9.00;5.80;;;27.20;99.90;;;;;;4828913;29;20510;-95
2023/08/14 08:09:37;;;;;;;6.97;6.30;;;27.20;99.90;;;;;;4825603;29;20487;-95
2023/08/14 08:12:03;;;;;;;8.00;6.83;;;27.30;99.90;;;;;;4833420;29;20228;-94
2023/08/14 08:14:29;;;;;;;7.60;6.20;;;27.40;99.90;;;;;;4832783;29;20231;-96
2023/08/14 08:16:55;;;;;;;7.23;6.33;;;27.50;99.90;;;;;;4831510;29;20512;-95
2023/08/14 08:19:21;;;;;;;7.87;6.07;;;27.60;99.90;;;;;;4835038;29;20193;-93
2023/08/14 08:21:47;;;;;;;8.93;7.23;;;27.70;99.90;;;;;;4832754;29;20182;-93
2023/08/14 08:24:13;;;;;;;6.27;5.47;;;27.90;99.90;;;;;;4830219;29;20437;-93
2023/08/14 08:26:39;;;;;;;7.10;5.50;;;28.00;99.90;;;;;;4841271;29;20467;-94
2023/08/14 08:29:07;;;;;;;6.53;5.80;;;28.20;99.90;;;;;;4831074;29;20221;-94
2023/08/14 08:31:33;;;;;;;6.93;5.93;;;28.30;99.90;;;;;;4829967;29;20755;-92
2023/08/14 08:33:59;;;;;;;6.50;5.30;;;28.40;99.90;;;;;;4830397;29;20461;-93
2023/08/14 08:36:25;;;;;;;9.10;6.13;;;28.50;99.90;;;;;;4843284;29;20508;-94
2023/08/14 08:38:51;;;;;;;6.83;5.90;;;28.60;99.50;;;;;;4833690;29;20456;-93
2023/08/14 08:41:39;;;;;;;7.83;6.30;;;28.70;99.30;;;;;;4834286;29;20713;-93
2023/08/14 08:44:24;;;;;;;7.07;5.83;;;28.90;99.40;;;;;;4828846;29;20206;-94
2023/08/14 08:47:02;;;;;;;7.70;5.90;;;28.90;98.70;;;;;;4826670;29;20535;-93
2023/08/14 08:49:28;;;;;;;6.03;5.47;;;29.00;99.20;;;;;;4823773;29;20443;-95
2023/08/14 08:51:54;;;;;;;9.20;6.33;;;29.00;98.60;;;;;;4829778;29;20496;-93
2023/08/14 08:54:20;;;;;;;11.90;6.40;;;29.10;98.70;;;;;;4830745;29;20475;-93
2023/08/14 08:56:47;;;;;;;6.67;5.47;;;29.20;98.50;;;;;;4834033;29;20444;-94
2023/08/14 08:59:14;;;;;;;7.53;6.00;;;29.20;98.20;;;;;;4816847;29;20885;-93
2023/08/14 09:01:43;;;;;;;7.13;5.53;;;29.20;98.00;;;;;;4827126;29;20447;-92
2023/08/14 09:04:09;;;;;;;5.90;5.30;;;29.30;97.70;;;;;;4832649;29;20457;-94
2023/08/14 09:06:35;;;;;;;5.63;5.17;;;29.40;97.50;;;;;;4834518;29;20534;-94
2023/08/14 09:09:01;;;;;;;7.93;5.07;;;29.50;97.50;;;;;;4827060;29;20196;-94
2023/08/14 09:11:29;;;;;;;8.20;6.27;;;29.60;97.50;;;;;;4832248;29;20268;-94
2023/08/14 09:13:55;;;;;;;6.90;5.07;;;29.70;97.60;;;;;;4824880;29;20507;-95
2023/08/14 09:16:20;;;;;;;5.73;5.13;;;29.80;96.80;;;;;;4836053;29;21025;-94
2023/08/14 09:18:46;;;;;;;5.67;5.27;;;29.80;96.70;;;;;;4833024;29;20429;-94
2023/08/14 09:21:13;;;;;;;7.27;5.50;;;29.90;96.80;;;;;;4834897;29;20210;-94
2023/08/14 09:23:40;;;;;;;7.03;5.70;;;29.90;96.40;;;;;;4832485;29;20491;-94
2023/08/14 09:26:06;;;;;;;8.00;5.60;;;30.10;96.40;;;;;;4832342;29;20534;-94
2023/08/14 09:28:33;;;;;;;5.30;4.80;;;30.20;96.70;;;;;;4832459;29;20582;-95
2023/08/14 09:31:09;;;;;;;6.67;5.30;;;30.20;96.10;;;;;;4831803;29;20231;-93
2023/08/14 09:33:44;;;;;;;6.20;5.17;;;30.30;95.90;;;;;;4829004;29;20531;-94
2023/08/14 09:36:11;;;;;;;6.03;4.80;;;30.40;95.50;;;;;;4826849;29;20446;-94
2023/08/14 09:38:37;;;;;;;5.20;4.80;;;30.50;95.00;;;;;;4832671;29;20439;-93
2023/08/14 09:41:06;;;;;;;4.40;4.10;;;30.50;94.40;;;;;;4831095;29;20554;-93
2023/08/14 09:43:33;;;;;;;4.90;4.37;;;30.50;94.50;;;;;;4829464;29;20444;-94
2023/08/14 09:46:01;;;;;;;5.30;4.80;;;30.40;94.50;;;;;;4829386;29;20460;-94
2023/08/14 09:48:43;;;;;;;4.63;4.33;;;30.50;94.50;;;;;;4829408;29;20444;-94
2023/08/14 09:51:14;;;;;;;5.03;4.63;;;30.50;94.30;;;;;;4828842;29;20547;-95
2023/08/14 09:53:58;;;;;;;5.13;4.63;;;30.50;94.20;;;;;;4832728;29;20949;-94
2023/08/14 09:56:25;;;;;;;4.90;4.50;;;30.60;94.10;;;;;;4832990;29;20820;-94
2023/08/14 09:58:52;;;;;;;4.90;4.50;;;30.60;94.00;;;;;;4831668;29;20433;-94
2023/08/14 10:01:20;;;;;;;6.50;4.80;;;30.50;93.90;;;;;;4832545;29;20445;-94
2023/08/14 10:03:53;;;;;;;4.80;4.40;;;30.60;94.10;;;;;;4831687;29;20443;-93
2023/08/14 10:06:23;;;;;;;8.20;5.10;;;30.40;93.80;;;;;;4830936;29;20466;-94
2023/08/14 10:08:54;;;;;;;9.20;4.77;;;30.40;94.10;;;;;;4829764;29;20425;-94
2023/08/14 10:11:21;;;;;;;5.03;4.53;;;30.40;93.30;;;;;;4831498;29;20811;-94
2023/08/14 10:13:52;;;;;;;8.73;4.53;;;30.60;92.90;;;;;;4831342;29;20465;-95
2023/08/14 10:16:25;;;;;;;4.90;4.50;;;30.60;93.50;;;;;;4831432;29;21215;-96
2023/08/14 10:18:56;;;;;;;6.57;5.30;;;30.60;92.80;;;;;;4845871;29;20447;-96
2023/08/14 10:21:26;;;;;;;5.17;4.67;;;30.60;93.10;;;;;;4833548;29;20452;-96
2023/08/14 10:23:54;;;;;;;5.83;5.43;;;30.60;93.40;;;;;;4833690;29;20424;-96
2023/08/14 10:26:20;;;;;;;6.13;5.20;;;30.50;93.30;;;;;;4835473;29;20548;-95
2023/08/14 10:28:46;;;;;;;5.07;4.70;;;30.50;93.50;;;;;;4833028;29;20427;-95
2023/08/14 10:31:12;;;;;;;5.77;4.40;;;30.50;93.50;;;;;;4834118;29;20487;-94
2023/08/14 10:33:39;;;;;;;4.73;4.33;;;30.60;92.80;;;;;;4833839;29;20244;-95
2023/08/14 10:36:05;;;;;;;5.70;5.10;;;30.70;92.70;;;;;;4835423;29;20460;-95
2023/08/14 10:38:42;;;;;;;4.97;4.57;;;30.80;92.90;;;;;;4834645;29;20509;-94
2023/08/14 10:41:09;;;;;;;6.60;4.87;;;30.90;92.40;;;;;;4835520;29;20714;-95
2023/08/14 10:43:35;;;;;;;5.50;5.00;;;31.00;92.00;;;;;;4836296;29;21027;-95
2023/08/14 10:46:13;;;;;;;4.87;4.37;;;31.10;92.00;;;;;;4837062;29;20437;-94
2023/08/14 10:48:43;;;;;;;5.60;5.10;;;31.00;92.40;;;;;;4830643;29;20954;-95
2023/08/14 10:51:10;;;;;;;5.40;4.90;;;31.00;91.80;;;;;;4834550;29;20484;-95
2023/08/14 10:53:36;;;;;;;6.30;5.70;;;31.10;91.80;;;;;;4834167;29;20551;-94
2023/08/14 10:56:05;;;;;;;5.47;4.77;;;31.10;91.90;;;;;;4835326;29;20816;-96
2023/08/14 10:58:37;;;;;;;5.30;4.80;;;31.20;91.40;;;;;;4836389;29;20420;-95
2023/08/14 11:01:07;;;;;;;5.47;5.07;;;31.20;91.00;;;;;;4840074;29;20521;-95
2023/08/14 11:03:58;;;;;;;5.13;4.50;;;31.20;91.20;;;;;;4833534;29;20535;-95
2023/08/14 11:06:26;;;;;;;4.67;4.37;;;31.30;90.60;;;;;;4835288;29;20456;-94
2023/08/14 11:09:04;;;;;;;5.40;4.90;;;31.30;90.90;;;;;;4833184;29;20744;-95
2023/08/14 11:11:29;;;;;;;5.40;4.90;;;31.30;90.80;;;;;;4833656;29;20495;-95
2023/08/14 11:13:56;;;;;;;4.70;4.30;;;31.40;91.00;;;;;;4832840;29;20414;-94
2023/08/14 11:16:22;;;;;;;5.07;4.67;;;31.40;90.80;;;;;;4832102;29;20291;-94
2023/08/14 11:18:48;;;;;;;5.20;4.10;;;31.50;91.10;;;;;;4832877;29;20812;-95
2023/08/14 11:21:14;;;;;;;5.43;4.93;;;31.50;91.00;;;;;;4836503;29;20464;-96
2023/08/14 11:23:40;;;;;;;5.27;4.87;;;31.60;91.30;;;;;;4835304;29;20981;-95
2023/08/14 11:26:05;;;;;;;4.73;4.33;;;31.70;90.30;;;;;;4835654;29;20205;-95
2023/08/14 11:28:32;;;;;;;5.73;4.50;;;31.80;89.80;;;;;;4833296;29;20359;-95
2023/08/14 11:30:57;;;;;;;4.43;4.13;;;31.80;89.30;;;;;;4835086;29;20248;-96
2023/08/14 11:33:23;;;;;;;6.87;5.13;;;31.80;88.60;;;;;;4840666;29;20886;-95
2023/08/14 11:35:53;;;;;;;4.80;4.50;;;31.80;88.70;;;;;;4841171;29;20244;-94
2023/08/14 11:38:19;;;;;;;4.90;4.50;;;31.80;89.20;;;;;;4839149;29;20348;-95
2023/08/14 11:40:45;;;;;;;5.30;4.80;;;31.80;89.30;;;;;;4837481;29;20445;-95
2023/08/14 11:43:12;;;;;;;4.70;4.37;;;31.80;90.20;;;;;;4834918;29;20455;-96
2023/08/14 11:45:38;;;;;;;4.90;4.50;;;31.70;90.10;;;;;;4834992;29;20444;-95
2023/08/14 11:48:05;;;;;;;4.40;4.10;;;31.60;90.40;;;;;;4835804;29;21025;-96
2023/08/14 11:50:31;;;;;;;4.60;4.23;;;31.60;90.50;;;;;;4837655;29;21028;-95
2023/08/14 11:52:57;;;;;;;4.73;4.33;;;31.70;90.10;;;;;;4835712;29;20453;-95
2023/08/14 11:55:23;;;;;;;6.17;5.10;;;31.80;88.60;;;;;;4834991;29;20233;-96
2023/08/14 11:57:49;;;;;;;4.40;4.10;;;31.80;88.40;;;;;;4833975;29;20464;-95
2023/08/14 12:00:15;;;;;;;5.03;4.63;;;31.90;88.50;;;;;;4833937;29;20447;-95
2023/08/14 12:02:44;;;;;;;4.53;4.20;;;31.90;89.50;;;;;;4834151;29;20280;-94
2023/08/14 12:05:10;;;;;;;4.60;4.03;;;31.90;89.30;;;;;;4833095;29;20472;-95
2023/08/14 12:07:40;;;;;;;5.07;4.23;;;31.90;89.50;;;;;;4833868;29;20449;-95
2023/08/14 12:10:07;;;;;;;4.17;3.87;;;31.80;89.90;;;;;;4835514;29;20445;-96
2023/08/14 12:12:33;;;;;;;5.00;4.70;;;31.80;90.00;;;;;;4827877;29;20466;-95
2023/08/14 12:15:00;;;;;;;4.70;4.30;;;31.70;90.10;;;;;;4832835;29;20445;-95
2023/08/14 12:17:26;;;;;;;4.73;4.33;;;31.70;90.00;;;;;;4834284;29;20472;-95
2023/08/14 12:19:54;;;;;;;5.13;4.70;;;31.70;90.00;;;;;;4834366;29;21058;-95
2023/08/14 12:22:27;;;;;;;5.30;4.80;;;31.70;89.80;;;;;;4835752;29;20659;-96
2023/08/14 12:24:54;;;;;;;4.17;3.87;;;31.70;90.10;;;;;;4835727;29;20445;-95
2023/08/14 12:27:27;;;;;;;4.70;4.27;;;31.60;90.40;;;;;;4836853;29;20459;-96
2023/08/14 12:29:54;;;;;;;5.07;4.60;;;31.70;89.90;;;;;;4832678;29;20452;-94
2023/08/14 12:32:21;;;;;;;5.03;4.63;;;31.70;88.60;;;;;;4839485;29;20491;-94
2023/08/14 12:34:47;;;;;;;5.20;4.70;;;31.70;87.90;;;;;;4836891;29;20460;-95
2023/08/14 12:37:15;;;;;;;5.13;4.73;;;31.80;89.30;;;;;;4835873;29;20467;-96
2023/08/14 12:39:45;;;;;;;6.70;4.73;;;31.60;89.80;;;;;;4832869;29;20557;-95
2023/08/14 12:42:12;;;;;;;4.90;4.50;;;31.60;89.10;;;;;;4833514;29;20630;-95